Time;durP1;ratioP1;P1;durP2;ratioP2;P2;SDS_P1;SDS_P2;PMS_P1;PMS_P2;Temp;Humidity;BMP_temperature;BMP_pressure;BME280_temperature;BME280_humidity;BME280_pressure;Samples;Min_cycle;Max_cycle;Signal;HPM_P1;HPM_P2
2023/09/01 00:02:02;;;;;;;4.28;3.22;;;;;;;18.97;nan;100630.53;5027465;28;20033;-77
2023/09/01 00:04:28;;;;;;;5.68;2.90;;;;;;;18.92;nan;100687.38;5030414;28;20107;-78
2023/09/01 00:06:54;;;;;;;6.30;3.20;;;;;;;18.92;nan;100628.69;5008279;28;20036;-78
2023/09/01 00:09:19;;;;;;;3.72;3.25;;;;;;;18.91;nan;100626.28;5004836;28;20022;-78
2023/09/01 00:11:45;;;;;;;4.22;3.15;;;;;;;;;;5030042;28;20046;-74
2023/09/01 00:14:10;;;;;;;3.70;3.23;;;;;;;;;;5028752;28;20036;-78
2023/09/01 00:16:35;;;;;;;4.97;2.60;;;;;;;;;;5011788;28;20284;-77
2023/09/01 00:19:00;;;;;;;8.50;3.13;;;;;;;;;;5028529;28;20077;-79
2023/09/01 00:21:26;;;;;;;5.10;3.20;;;;;;;18.84;nan;100701.31;5029774;28;20297;-79
2023/09/01 00:23:51;;;;;;;6.97;3.15;;;;;;;18.90;nan;100627.34;5029919;28;20017;-78
2023/09/01 00:26:17;;;;;;;4.55;3.00;;;;;;;18.85;nan;100625.50;5002827;28;20030;-74
2023/09/01 00:28:43;;;;;;;4.53;3.33;;;;;;;18.89;nan;100645.25;5029537;28;20021;-79
2023/09/01 00:31:08;;;;;;;5.35;3.40;;;;;;;18.82;nan;100636.75;5026661;28;20031;-78
2023/09/01 00:33:33;;;;;;;5.32;3.63;;;;;;;18.67;nan;100650.09;5027131;28;20068;-78
2023/09/01 00:36:00;;;;;;;4.45;3.35;;;;;;;18.65;nan;100654.91;5010500;28;20176;-79
2023/09/01 00:38:25;;;;;;;4.22;3.22;;;;;;;18.54;nan;100634.69;5029633;28;20160;-78
2023/09/01 00:40:50;;;;;;;3.88;3.33;;;;;;;;;;5029585;28;20038;-78
2023/09/01 00:43:16;;;;;;;5.90;3.30;;;;;;;18.53;nan;100663.19;5029647;28;21002;-79
2023/09/01 00:45:42;;;;;;;4.85;3.13;;;;;;;18.50;nan;100647.75;5028959;28;20278;-78
2023/09/01 00:48:08;;;;;;;7.45;3.47;;;;;;;18.45;nan;100639.78;5027828;28;20108;-78
2023/09/01 00:50:36;;;;;;;4.03;3.00;;;;;;;18.51;nan;100638.69;5026475;28;20022;-78
2023/09/01 00:53:04;;;;;;;6.57;3.17;;;;;;;18.43;nan;100658.69;5028064;28;20383;-74
2023/09/01 00:55:30;;;;;;;5.72;2.95;;;;;;;;;;5028327;28;20782;-78
2023/09/01 00:57:55;;;;;;;4.15;3.35;;;;;;;18.42;nan;100651.00;5028771;28;20057;-78
2023/09/01 01:00:21;;;;;;;3.88;2.90;;;;;;;18.38;nan;100607.25;5010097;28;20028;-79
2023/09/01 01:02:48;;;;;;;3.50;2.92;;;;;;;18.32;nan;100633.16;5011467;28;20029;-79
2023/09/01 01:05:15;;;;;;;3.92;3.30;;;;;;;;;;5012138;28;20025;-79
2023/09/01 01:07:45;;;;;;;4.20;3.33;;;;;;;;;;5025702;28;20028;-79
2023/09/01 01:10:27;;;;;;;5.43;3.35;;;;;;;18.34;nan;100672.84;5010238;28;20109;-79
2023/09/01 01:12:57;;;;;;;6.05;3.03;;;;;;;18.32;nan;100726.47;5027398;28;20045;-77
2023/09/01 01:15:24;;;;;;;3.88;3.15;;;;;;;;;;5030270;28;20093;-77
2023/09/01 01:17:51;;;;;;;6.00;3.40;;;;;;;18.23;nan;100653.44;5028332;28;20052;-77
2023/09/01 01:20:22;;;;;;;6.93;3.65;;;;;;;18.31;nan;100666.19;5011284;28;20029;-77
2023/09/01 01:23:06;;;;;;;4.32;3.20;;;;;;;18.32;nan;100677.69;5026049;28;20112;-78
2023/09/01 01:25:31;;;;;;;4.43;3.50;;;;;;;18.20;nan;100654.75;5024695;28;20060;-77
2023/09/01 01:27:57;;;;;;;5.03;3.70;;;;;;;18.24;nan;100660.34;5027783;28;20044;-77
2023/09/01 01:30:22;;;;;;;4.80;3.25;;;;;;;;;;5010835;28;20021;-78
2023/09/01 01:32:49;;;;;;;4.73;3.83;;;;;;;18.15;nan;100667.28;5025304;28;20029;-77
2023/09/01 01:35:45;;;;;;;4.55;3.83;;;;;;;18.19;nan;100669.16;5027952;28;20036;-77
2023/09/01 01:38:18;;;;;;;6.22;3.83;;;;;;;18.20;nan;100672.63;5027235;28;20022;-79
2023/09/01 01:40:47;;;;;;;5.57;3.45;;;;;;;18.21;nan;100716.88;5027679;28;20024;-79
2023/09/01 01:43:16;;;;;;;6.00;3.58;;;;;;;;;;4999552;28;20031;-72
2023/09/01 01:45:42;;;;;;;5.07;3.85;;;;;;;;;;5027402;28;20049;-73
2023/09/01 01:48:07;;;;;;;6.10;3.20;;;;;;;;;;5027586;28;20087;-73
2023/09/01 01:50:33;;;;;;;5.28;3.60;;;;;;;;;;5028195;28;20467;-73
2023/09/01 01:52:58;;;;;;;10.03;3.93;;;;;;;;;;5006749;28;20041;-73
2023/09/01 01:55:24;;;;;;;6.50;3.90;;;;;;;;;;5028046;28;20271;-73
2023/09/01 01:57:49;;;;;;;5.00;3.67;;;;;;;18.07;nan;100656.09;5025798;28;20471;-73
2023/09/01 02:00:14;;;;;;;5.07;3.53;;;;;;;;;;5026358;28;20290;-72
2023/09/01 02:02:43;;;;;;;6.15;3.70;;;;;;;;;;5008981;28;20049;-72
2023/09/01 02:05:09;;;;;;;9.52;4.07;;;;;;;18.03;nan;100649.72;5010126;28;20164;-73
2023/09/01 02:07:35;;;;;;;6.28;3.85;;;;;;;18.05;nan;100655.59;5025606;28;20032;-72
2023/09/01 02:10:05;;;;;;;5.80;4.00;;;;;;;;;;5027857;28;20053;-72
2023/09/01 02:12:31;;;;;;;6.97;3.53;;;;;;;;;;5009348;28;20473;-72
2023/09/01 02:14:56;;;;;;;5.93;3.92;;;;;;;;;;5007950;28;20037;-72
2023/09/01 02:17:21;;;;;;;9.00;3.60;;;;;;;;;;5023897;28;20049;-72
2023/09/01 02:19:47;;;;;;;7.57;4.60;;;;;;;;;;5027562;28;21171;-72
2023/09/01 02:22:12;;;;;;;5.35;4.22;;;;;;;;;;5025997;28;20332;-72
2023/09/01 02:24:37;;;;;;;9.03;4.37;;;;;;;;;;5026970;28;20029;-72
2023/09/01 02:27:04;;;;;;;7.70;4.17;;;;;;;;;;5026518;28;20044;-72
2023/09/01 02:29:29;;;;;;;5.75;3.53;;;;;;;;;;5027529;28;20034;-72
2023/09/01 02:31:54;;;;;;;5.40;3.90;;;;;;;;;;5007789;28;20116;-74
2023/09/01 02:34:20;;;;;;;5.20;3.67;;;;;;;;;;5026571;28;20033;-74
2023/09/01 02:36:45;;;;;;;6.90;3.63;;;;;;;;;;5027057;28;20632;-71
2023/09/01 02:39:11;;;;;;;4.47;3.70;;;;;;;;;;5009887;28;20488;-73
2023/09/01 02:41:36;;;;;;;4.78;3.38;;;;;;;;;;5027012;28;20546;-73
2023/09/01 02:44:02;;;;;;;7.97;4.60;;;;;;;18.08;nan;100710.22;5027323;28;20060;-73
2023/09/01 02:46:27;;;;;;;7.28;3.92;;;;;;;18.11;nan;100659.03;5003166;28;20099;-73
2023/09/01 02:48:53;;;;;;;7.55;5.00;;;;;;;;;;5027059;28;20129;-73
2023/09/01 02:51:18;;;;;;;6.03;4.68;;;;;;;;;;5023763;28;20606;-74
2023/09/01 02:53:43;;;;;;;5.40;4.27;;;;;;;;;;5024945;28;20410;-73
2023/09/01 02:56:09;;;;;;;12.77;4.63;;;;;;;;;;5025604;28;20336;-73
2023/09/01 02:58:34;;;;;;;8.07;4.87;;;;;;;;;;5027035;28;20037;-74
2023/09/01 03:01:07;;;;;;;6.50;4.20;;;;;;;;;;5009422;28;20279;-79
2023/09/01 03:03:32;;;;;;;7.00;4.90;;;;;;;;;;4998921;28;20116;-81
2023/09/01 03:05:58;;;;;;;7.90;4.57;;;;;;;17.95;nan;100724.84;5025989;28;20116;-80
2023/09/01 03:08:23;;;;;;;8.20;4.63;;;;;;;;;;5024574;28;20488;-81
2023/09/01 03:10:49;;;;;;;7.00;4.30;;;;;;;;;;5009215;28;20029;-73
2023/09/01 03:13:14;;;;;;;6.13;4.30;;;;;;;;;;5025895;28;20055;-80
2023/09/01 03:15:40;;;;;;;5.23;3.93;;;;;;;;;;5026555;28;20112;-78
2023/09/01 03:18:06;;;;;;;8.32;4.78;;;;;;;;;;5025810;28;20821;-80
2023/09/01 03:20:31;;;;;;;10.90;4.72;;;;;;;;;;5028278;28;20030;-79
2023/09/01 03:22:56;;;;;;;6.27;4.60;;;;;;;;;;5025103;28;20436;-79
2023/09/01 03:25:21;;;;;;;10.93;4.23;;;;;;;;;;5025954;28;20025;-79
2023/09/01 03:27:46;;;;;;;6.77;4.40;;;;;;;;;;5026944;28;20021;-79
2023/09/01 03:30:12;;;;;;;7.97;4.80;;;;;;;;;;5026530;28;20075;-79
2023/09/01 03:32:37;;;;;;;12.10;4.38;;;;;;;;;;5027400;28;20835;-80
2023/09/01 03:35:03;;;;;;;6.78;4.13;;;;;;;;;;5024537;28;20579;-80
2023/09/01 03:37:29;;;;;;;8.75;4.93;;;;;;;;;;5028621;28;20475;-81
2023/09/01 03:39:54;;;;;;;7.33;4.30;;;;;;;;;;5013815;28;20080;-80
2023/09/01 03:42:19;;;;;;;8.00;5.25;;;;;;;;;;5031333;28;20340;-81
2023/09/01 03:44:44;;;;;;;9.60;4.67;;;;;;;;;;5028985;28;20116;-80
2023/09/01 03:47:10;;;;;;;11.50;4.95;;;;;;;;;;5031200;28;20348;-80
2023/09/01 03:49:35;;;;;;;11.25;5.25;;;;;;;;;;5031865;28;20017;-74
2023/09/01 03:52:00;;;;;;;7.75;5.15;;;;;;;;;;5029076;28;20033;-79
2023/09/01 03:54:26;;;;;;;7.20;5.33;;;;;;;;;;5012000;28;20033;-78
2023/09/01 03:56:51;;;;;;;8.88;5.50;;;;;;;;;;5030298;28;20028;-79
2023/09/01 03:59:17;;;;;;;6.70;4.87;;;;;;;;;;5028129;28;20502;-76
2023/09/01 04:01:45;;;;;;;7.93;5.20;;;;;;;17.19;nan;100672.25;5027385;28;20053;-79
2023/09/01 04:04:11;;;;;;;17.52;5.70;;;;;;;;;;5013182;28;20025;-80
2023/09/01 04:06:37;;;;;;;12.10;5.20;;;;;;;;;;5010768;28;20087;-79
2023/09/01 04:09:03;;;;;;;15.75;4.85;;;;;;;;;;5029941;28;20116;-74
2023/09/01 04:11:28;;;;;;;13.90;4.93;;;;;;;17.14;nan;100682.88;5029962;28;20020;-75
2023/09/01 04:13:55;;;;;;;9.98;5.20;;;;;;;;;;5029736;28;20663;-74
2023/09/01 04:16:21;;;;;;;9.23;4.75;;;;;;;;;;5030281;28;20025;-74
2023/09/01 04:18:47;;;;;;;8.32;5.43;;;;;;;17.11;nan;100733.97;5028381;28;20783;-74
2023/09/01 04:21:13;;;;;;;11.18;5.15;;;;;;;;;;5010270;28;20026;-74
2023/09/01 04:23:39;;;;;;;16.13;6.25;;;;;;;;;;5029580;28;20472;-79
2023/09/01 04:26:04;;;;;;;14.20;5.97;;;;;;;;;;5029906;28;20438;-74
2023/09/01 04:28:30;;;;;;;13.88;6.70;;;;;;;;;;5012466;28;20537;-75
2023/09/01 04:30:59;;;;;;;13.07;6.57;;;;;;;;;;5029709;28;20025;-75
2023/09/01 04:33:26;;;;;;;10.20;6.13;;;;;;;;;;5022177;28;20036;-78
2023/09/01 04:36:03;;;;;;;8.88;6.10;;;;;;;;;;5009077;28;20121;-74
2023/09/01 04:38:28;;;;;;;16.05;6.65;;;;;;;;;;5029273;28;20022;-73
2023/09/01 04:40:57;;;;;;;14.47;6.37;;;;;;;;;;5010792;28;20416;-73
2023/09/01 04:43:25;;;;;;;13.93;5.95;;;;;;;;;;5009655;28;20029;-74
2023/09/01 04:45:50;;;;;;;15.48;6.55;;;;;;;;;;5028483;28;20021;-73
2023/09/01 04:48:16;;;;;;;11.95;6.43;;;;;;;;;;5010214;28;20391;-72
2023/09/01 04:50:41;;;;;;;12.93;5.63;;;;;;;16.66;nan;100752.03;5028186;28;20117;-72
2023/09/01 04:53:06;;;;;;;13.05;6.25;;;;;;;16.76;nan;100780.56;5008638;28;20640;-72
2023/09/01 04:55:32;;;;;;;11.95;7.35;;;;;;;;;;5025892;28;20125;-72
2023/09/01 04:57:57;;;;;;;11.17;7.47;;;;;;;;;;5027450;28;20042;-72
2023/09/01 05:00:22;;;;;;;15.60;7.87;;;;;;;;;;5025368;28;20560;-72
2023/09/01 05:02:47;;;;;;;19.40;9.73;;;;;;;;;;5028179;28;20025;-71
2023/09/01 05:05:13;;;;;;;18.57;8.63;;;;;;;;;;5025859;28;20116;-74
2023/09/01 05:07:38;;;;;;;13.30;8.90;;;;;;;;;;5003413;28;20168;-71
2023/09/01 05:10:05;;;;;;;14.40;8.63;;;;;;;16.83;nan;100724.50;5029468;28;20014;-72
2023/09/01 05:12:31;;;;;;;14.27;8.45;;;;;;;;;;5006107;28;20157;-72
2023/09/01 05:14:56;;;;;;;17.57;8.60;;;;;;;;;;5010348;28;20164;-72
2023/09/01 05:17:21;;;;;;;17.50;9.30;;;;;;;;;;5007381;28;20276;-71
2023/09/01 05:19:46;;;;;;;17.20;9.07;;;;;;;;;;5009110;28;20033;-73
2023/09/01 05:22:12;;;;;;;14.93;8.90;;;;;;;;;;5027161;28;20032;-74
2023/09/01 05:24:39;;;;;;;18.83;8.73;;;;;;;;;;5028572;28;20598;-73
2023/09/01 05:27:04;;;;;;;15.02;9.27;;;;;;;;;;5025943;28;20052;-73
2023/09/01 05:29:30;;;;;;;16.07;9.10;;;;;;;;;;5028547;28;20463;-72
2023/09/01 05:31:55;;;;;;;13.75;8.60;;;;;;;;;;5028027;28;20032;-69
2023/09/01 05:34:21;;;;;;;15.05;9.20;;;;;;;;;;5027578;28;20021;-71
2023/09/01 05:36:46;;;;;;;16.40;9.50;;;;;;;;;;5009507;28;20025;-71
2023/09/01 05:39:11;;;;;;;17.37;8.70;;;;;;;;;;5027800;28;20043;-71
2023/09/01 05:41:36;;;;;;;12.03;8.27;;;;;;;17.35;nan;100806.97;5027139;28;20029;-71
2023/09/01 05:44:02;;;;;;;14.50;9.43;;;;;;;;;;5025666;28;20113;-71
2023/09/01 05:46:27;;;;;;;14.20;9.27;;;;;;;;;;5027455;28;20046;-74
2023/09/01 05:48:52;;;;;;;17.03;8.40;;;;;;;;;;5008358;28;20037;-69
2023/09/01 05:51:18;;;;;;;17.27;9.13;;;;;;;;;;5027099;28;20621;-70
2023/09/01 05:53:43;;;;;;;14.67;9.90;;;;;;;17.62;nan;100846.78;5025757;28;20033;-70
2023/09/01 05:56:08;;;;;;;18.77;9.90;;;;;;;;;;5026087;28;20521;-70
2023/09/01 05:58:35;;;;;;;15.30;8.75;;;;;;;17.74;nan;100817.25;5025603;28;20092;-69
2023/09/01 06:01:00;;;;;;;12.02;7.90;;;;;;;;;;5021937;28;20033;-69
2023/09/01 06:03:25;;;;;;;17.13;9.23;;;;;;;;;;5026291;28;20056;-69
2023/09/01 06:05:51;;;;;;;14.30;8.00;;;;;;;;;;5004569;28;20388;-70
2023/09/01 06:08:16;;;;;;;15.50;8.47;;;;;;;18.00;nan;100775.47;5027537;28;20487;-70
2023/09/01 06:10:42;;;;;;;15.63;9.00;;;;;;;18.06;nan;100814.41;5027195;28;20053;-70
2023/09/01 06:13:07;;;;;;;15.48;9.15;;;;;;;18.12;nan;100803.75;5019219;28;20056;-69
2023/09/01 06:15:33;;;;;;;15.20;8.80;;;;;;;18.27;nan;100814.44;5012257;28;20530;-71
2023/09/01 06:17:58;;;;;;;16.60;7.82;;;;;;;18.30;nan;100816.56;5019754;28;20029;-71
2023/09/01 06:20:24;;;;;;;11.07;8.18;;;;;;;18.48;nan;100825.88;5026384;28;20043;-71
2023/09/01 06:22:50;;;;;;;11.93;8.18;;;;;;;18.51;nan;100812.03;4998982;28;20033;-72
2023/09/01 06:25:15;;;;;;;16.48;8.20;;;;;;;18.63;nan;100827.78;5024686;28;20087;-71
2023/09/01 06:27:41;;;;;;;12.38;7.57;;;;;;;18.78;nan;100835.00;5009898;28;20380;-71
2023/09/01 06:30:06;;;;;;;13.52;7.80;;;;;;;18.82;nan;100831.50;5005856;28;20057;-71
2023/09/01 06:32:33;;;;;;;12.70;7.10;;;;;;;18.91;nan;100835.25;5026194;28;20494;-71
2023/09/01 06:34:58;;;;;;;14.32;7.03;;;;;;;18.90;nan;100833.63;5024675;28;20037;-73
2023/09/01 06:37:23;;;;;;;11.23;6.68;;;;;;;19.01;nan;100846.94;5022901;28;20087;-72
2023/09/01 06:39:49;;;;;;;15.98;6.82;;;;;;;;;;5023815;28;20033;-70
2023/09/01 06:42:14;;;;;;;11.90;5.43;;;;;;;19.15;nan;100801.81;5023565;28;20029;-69
2023/09/01 06:44:40;;;;;;;7.75;5.20;;;;;;;19.19;nan;100808.19;5025318;28;20325;-69
2023/09/01 06:47:05;;;;;;;13.73;5.28;;;;;;;19.09;nan;100769.00;5025341;28;20083;-69
2023/09/01 06:49:31;;;;;;;14.60;5.15;;;;;;;19.27;nan;100789.72;5023257;28;20025;-71
2023/09/01 06:51:58;;;;;;;10.75;5.10;;;;;;;;;;5025347;28;20032;-70
2023/09/01 06:54:23;;;;;;;9.45;4.55;;;;;;;;;;5023704;28;20391;-71
2023/09/01 06:56:48;;;;;;;12.33;5.20;;;;;;;19.43;nan;100792.34;5025100;28;20021;-70
2023/09/01 06:59:14;;;;;;;9.60;4.82;;;;;;;;;;5008080;28;20345;-69
2023/09/01 07:01:39;;;;;;;10.53;4.40;;;;;;;19.59;nan;100791.22;5024110;28;20025;-71
2023/09/01 07:04:05;;;;;;;6.20;4.30;;;;;;;19.66;nan;100813.06;5023542;28;20029;-71
2023/09/01 07:06:30;;;;;;;7.38;4.43;;;;;;;;;;5019308;28;20026;-70
2023/09/01 07:08:55;;;;;;;12.87;4.37;;;;;;;19.81;nan;100753.44;5021062;28;20555;-71
2023/09/01 07:11:21;;;;;;;10.35;4.32;;;;;;;19.88;nan;100785.97;5027468;28;20407;-69
2023/09/01 07:13:46;;;;;;;7.55;4.65;;;;;;;19.95;nan;100821.22;5017922;28;20058;-69
2023/09/01 07:16:12;;;;;;;7.82;4.70;;;;;;;19.96;nan;100816.66;5024401;28;20033;-70
2023/09/01 07:18:38;;;;;;;6.47;4.47;;;;;;;20.02;nan;100834.28;5019269;28;20030;-70
2023/09/01 07:21:03;;;;;;;10.82;4.40;;;;;;;20.04;nan;100808.06;5016003;28;20096;-69
2023/09/01 07:23:31;;;;;;;9.90;4.60;;;;;;;20.14;nan;100837.41;5015491;28;20037;-70
2023/09/01 07:25:58;;;;;;;6.28;4.10;;;;;;;20.15;nan;100816.81;5013976;28;20026;-70
2023/09/01 07:28:24;;;;;;;5.70;3.88;;;;;;;20.20;nan;100827.47;5018194;28;20017;-70
2023/09/01 07:30:49;;;;;;;9.95;4.10;;;;;;;;;;4996057;28;20372;-69
2023/09/01 07:33:16;;;;;;;10.88;3.65;;;;;;;20.45;nan;100844.38;5016691;28;20468;-69
2023/09/01 07:35:48;;;;;;;5.57;3.40;;;;;;;20.51;nan;100822.66;5014015;28;20033;-66
2023/09/01 07:38:15;;;;;;;5.40;3.58;;;;;;;20.58;nan;100852.59;5016519;28;20100;-68
2023/09/01 07:40:41;;;;;;;10.88;4.07;;;;;;;20.65;nan;100846.94;5016644;28;20029;-69
2023/09/01 07:43:10;;;;;;;9.23;4.18;;;;;;;20.69;nan;100845.28;5015512;28;20483;-69
2023/09/01 07:45:36;;;;;;;5.43;3.90;;;;;;;20.70;nan;100827.34;4980803;28;20036;-69
2023/09/01 07:48:02;;;;;;;6.28;3.58;;;;;;;20.74;nan;100847.91;5017342;28;20038;-69
2023/09/01 07:50:30;;;;;;;6.75;3.72;;;;;;;20.80;nan;100969.09;5017304;28;20379;-76
2023/09/01 07:52:56;;;;;;;5.05;3.33;;;;;;;;;;5013340;28;20029;-69
2023/09/01 07:55:21;;;;;;;4.20;3.15;;;;;;;21.08;nan;100832.88;5015111;28;20657;-71
2023/09/01 07:57:46;;;;;;;6.05;2.97;;;;;;;21.10;nan;100828.81;5017333;28;20117;-69
2023/09/01 08:00:12;;;;;;;6.72;2.95;;;;;;;21.09;nan;100821.06;5019285;28;20026;-71
2023/09/01 08:02:38;;;;;;;4.53;2.78;;;;;;;21.14;nan;100837.88;5017487;28;20036;-70
2023/09/01 08:05:03;;;;;;;6.43;3.55;;;;;;;;;;5013488;28;20053;-69
2023/09/01 08:07:30;;;;;;;5.85;2.88;;;;;;;21.28;nan;100859.41;4996819;28;20018;-69
2023/09/01 08:09:56;;;;;;;10.02;3.00;;;;;;;21.31;nan;100904.41;5017536;28;20488;-70
2023/09/01 08:12:21;;;;;;;6.55;2.75;;;;;;;21.32;nan;100830.97;5016903;28;20057;-69
2023/09/01 08:14:47;;;;;;;6.88;2.90;;;;;;;21.42;nan;100851.50;5030370;28;20029;-69
2023/09/01 08:17:12;;;;;;;5.85;2.80;;;;;;;21.47;nan;100853.34;5032268;28;20040;-70
2023/09/01 08:19:40;;;;;;;5.97;2.80;;;;;;;21.47;nan;100838.06;5015592;28;20028;-70
2023/09/01 08:22:06;;;;;;;5.47;3.22;;;;;;;21.55;nan;100850.81;5013957;28;20033;-70
2023/09/01 08:24:31;;;;;;;3.33;2.50;;;;;;;21.60;nan;100890.16;5028669;28;20030;-70
2023/09/01 08:26:56;;;;;;;5.00;2.60;;;;;;;21.65;nan;100842.66;5028955;28;20052;-69
2023/09/01 08:29:22;;;;;;;3.85;2.83;;;;;;;21.79;nan;100866.88;5028467;28;20041;-69
2023/09/01 08:31:47;;;;;;;5.20;2.67;;;;;;;21.89;nan;100847.16;5028862;28;20026;-69
2023/09/01 08:34:13;;;;;;;6.35;2.58;;;;;;;21.85;nan;100833.53;5011245;28;20040;-69
2023/09/01 08:36:38;;;;;;;3.58;2.60;;;;;;;21.99;nan;100774.59;5028897;28;20638;-71
2023/09/01 08:39:05;;;;;;;7.68;2.50;;;;;;;22.08;nan;100790.84;5029305;28;20041;-71
2023/09/01 08:41:32;;;;;;;7.07;2.40;;;;;;;22.09;nan;100805.81;5028268;28;20036;-68
2023/09/01 08:44:04;;;;;;;5.13;2.30;;;;;;;22.13;nan;100855.13;5028000;28;20064;-71
2023/09/01 08:46:31;;;;;;;3.33;2.20;;;;;;;22.20;nan;100844.84;5028233;28;20033;-69
2023/09/01 08:48:57;;;;;;;7.10;2.58;;;;;;;22.30;nan;100772.25;5028902;28;20025;-69
2023/09/01 08:51:24;;;;;;;3.85;2.35;;;;;;;22.29;nan;100864.56;5021768;28;20049;-68
2023/09/01 08:53:50;;;;;;;8.98;2.60;;;;;;;22.38;nan;100819.06;5028732;28;20029;-69
2023/09/01 08:56:15;;;;;;;3.63;2.25;;;;;;;22.47;nan;100846.03;5027833;28;20604;-69
2023/09/01 08:58:44;;;;;;;4.65;2.40;;;;;;;22.58;nan;100874.31;5006863;28;20121;-70
2023/09/01 09:01:10;;;;;;;4.30;2.40;;;;;;;22.63;nan;100842.00;5022769;28;20026;-68
2023/09/01 09:03:36;;;;;;;5.32;2.10;;;;;;;22.64;nan;100897.28;5015557;28;20033;-69
2023/09/01 09:06:03;;;;;;;5.78;2.25;;;;;;;22.66;nan;100825.31;5007219;28;20537;-69
2023/09/01 09:08:29;;;;;;;4.25;2.08;;;;;;;22.75;nan;100833.47;5022952;28;20055;-70
2023/09/01 09:10:54;;;;;;;2.58;2.10;;;;;;;22.83;nan;100830.09;5028141;28;20045;-68
2023/09/01 09:13:31;;;;;;;3.85;2.13;;;;;;;22.89;nan;100836.97;5028195;28;20081;-69
2023/09/01 09:16:17;;;;;;;3.35;2.20;;;;;;;22.94;nan;100846.84;5028435;28;20022;-70
2023/09/01 09:18:44;;;;;;;3.00;2.10;;;;;;;;;;5015017;28;20487;-70
2023/09/01 09:21:30;;;;;;;2.83;2.20;;;;;;;23.01;nan;100836.53;5027197;28;20018;-70
2023/09/01 09:23:59;;;;;;;5.60;2.58;;;;;;;23.00;nan;100840.28;5017939;28;20823;-70
2023/09/01 09:26:29;;;;;;;4.60;2.17;;;;;;;23.08;nan;100845.00;4986305;28;20041;-69
2023/09/01 09:29:06;;;;;;;2.42;2.00;;;;;;;23.16;nan;100838.13;5026591;28;20128;-69
2023/09/01 09:31:44;;;;;;;2.70;2.03;;;;;;;23.24;nan;100825.88;5009505;28;20534;-69
2023/09/01 09:34:25;;;;;;;3.75;2.00;;;;;;;23.31;nan;100850.44;5025130;28;20027;-69
2023/09/01 09:36:50;;;;;;;7.22;1.98;;;;;;;23.37;nan;100841.19;5025803;28;20018;-71
2023/09/01 09:39:33;;;;;;;4.75;2.05;;;;;;;23.42;nan;100841.09;5027871;28;20040;-72
2023/09/01 09:41:58;;;;;;;7.43;2.25;;;;;;;23.53;nan;100818.25;5026030;28;20025;-72
2023/09/01 09:44:27;;;;;;;4.63;2.13;;;;;;;23.57;nan;100848.81;5027592;28;20029;-72
2023/09/01 09:46:54;;;;;;;3.20;1.90;;;;;;;23.63;nan;100830.69;5028759;28;20033;-72
2023/09/01 09:49:21;;;;;;;4.25;2.10;;;;;;;23.69;nan;100842.94;5027429;28;20487;-69
2023/09/01 09:51:51;;;;;;;2.42;1.83;;;;;;;23.84;nan;100851.78;5017460;28;21563;-69
2023/09/01 09:54:20;;;;;;;5.65;1.88;;;;;;;23.91;nan;100834.13;5026629;28;20041;-69
2023/09/01 09:56:49;;;;;;;3.10;2.15;;;;;;;23.98;nan;100837.19;5027482;28;20020;-67
2023/09/01 09:59:18;;;;;;;2.85;2.17;;;;;;;24.08;nan;100832.69;5024355;28;20029;-68
2023/09/01 10:01:45;;;;;;;4.18;1.95;;;;;;;24.10;nan;100849.31;5026423;28;20048;-68
2023/09/01 10:04:11;;;;;;;2.75;2.03;;;;;;;24.02;nan;100825.84;5022767;28;20406;-68
2023/09/01 10:06:37;;;;;;;3.42;2.15;;;;;;;24.00;nan;100775.03;5028015;28;20037;-67
2023/09/01 10:09:07;;;;;;;2.80;1.80;;;;;;;24.09;nan;100827.00;5026477;28;20025;-67
2023/09/01 10:11:33;;;;;;;3.65;1.77;;;;;;;24.09;nan;100831.59;5026429;28;20475;-68
2023/09/01 10:14:00;;;;;;;3.78;2.15;;;;;;;24.12;nan;100823.69;5009427;28;20053;-69
2023/09/01 10:16:25;;;;;;;2.97;2.00;;;;;;;24.19;nan;100823.28;5007143;28;20025;-69
2023/09/01 10:18:55;;;;;;;4.55;2.00;;;;;;;24.27;nan;100844.06;5025517;28;20032;-68
2023/09/01 10:21:20;;;;;;;5.70;2.22;;;;;;;24.32;nan;100835.06;5026562;28;20021;-67
2023/09/01 10:23:47;;;;;;;2.67;1.77;;;;;;;24.40;nan;100890.88;5006688;28;20028;-69
2023/09/01 10:26:25;;;;;;;2.83;2.00;;;;;;;24.47;nan;100828.53;5024700;28;20079;-68
2023/09/01 10:29:03;;;;;;;3.60;1.92;;;;;;;24.54;nan;100834.28;5024371;28;20033;-67
2023/09/01 10:31:30;;;;;;;4.03;1.87;;;;;;;24.59;nan;100826.88;5007444;28;20619;-67
2023/09/01 10:34:10;;;;;;;3.40;1.85;;;;;;;24.69;nan;100838.50;5023969;28;20369;-70
2023/09/01 10:36:37;;;;;;;3.05;1.92;;;;;;;24.77;nan;100830.44;5008388;28;20022;-70
2023/09/01 10:39:22;;;;;;;7.32;2.20;;;;;;;24.86;nan;100848.56;5025338;28;20028;-67
2023/09/01 10:42:02;;;;;;;5.82;1.70;;;;;;;24.91;nan;100846.50;5025224;28;20079;-68
2023/09/01 10:45:06;;;;;;;1.60;1.50;;;;;;;24.98;nan;100849.56;5028048;28;20017;-68
2023/09/01 10:47:31;;;;;;;2.47;1.40;;;;;;;25.08;nan;100842.31;4999779;28;20049;-66
2023/09/01 10:50:01;;;;;;;2.85;1.70;;;;;;;25.13;nan;100829.47;5018917;28;20535;-68
2023/09/01 10:52:28;;;;;;;2.67;1.65;;;;;;;25.11;nan;100828.19;5025950;28;20029;-66
2023/09/01 10:55:04;;;;;;;2.40;1.67;;;;;;;24.98;nan;100817.22;5026971;28;20479;-68
2023/09/01 10:57:51;;;;;;;3.70;1.60;;;;;;;25.09;nan;100841.19;5018471;28;20034;-69
2023/09/01 11:00:34;;;;;;;2.88;1.90;;;;;;;25.19;nan;100836.34;4986743;28;20128;-66
2023/09/01 11:03:37;;;;;;;2.42;1.60;;;;;;;25.28;nan;100854.44;5023533;28;20542;-69
2023/09/01 11:06:06;;;;;;;2.80;1.90;;;;;;;25.24;nan;100833.50;5008376;28;20030;-67
2023/09/01 11:08:32;;;;;;;3.00;1.60;;;;;;;25.33;nan;100816.53;5024598;28;20459;-66
2023/09/01 11:11:09;;;;;;;4.25;1.90;;;;;;;25.40;nan;100833.06;5026213;28;20067;-67
2023/09/01 11:13:35;;;;;;;2.38;1.65;;;;;;;25.40;nan;100884.28;5025586;28;20141;-68
2023/09/01 11:16:16;;;;;;;2.35;1.80;;;;;;;25.40;nan;100823.06;5002408;28;20454;-68
2023/09/01 11:18:44;;;;;;;3.15;1.65;;;;;;;25.46;nan;100846.09;5025592;28;20024;-66
2023/09/01 11:21:10;;;;;;;2.78;1.83;;;;;;;25.54;nan;100836.41;5008482;28;20044;-68
2023/09/01 11:23:36;;;;;;;1.60;1.50;;;;;;;25.57;nan;100843.91;5025159;28;21032;-69
2023/09/01 11:26:05;;;;;;;2.38;1.70;;;;;;;25.64;nan;100821.81;5024814;28;20033;-69
2023/09/01 11:28:34;;;;;;;2.92;1.58;;;;;;;25.68;nan;100806.59;5007842;28;20029;-68
2023/09/01 11:31:03;;;;;;;4.28;1.90;;;;;;;25.75;nan;100815.03;5022675;28;20344;-67
2023/09/01 11:33:33;;;;;;;3.03;1.83;;;;;;;25.66;nan;100825.78;5015875;28;20407;-68
2023/09/01 11:36:06;;;;;;;2.47;1.60;;;;;;;25.55;nan;100853.38;5024013;28;20828;-69
2023/09/01 11:38:34;;;;;;;4.03;1.70;;;;;;;25.55;nan;100856.06;5025659;28;20686;-68
2023/09/01 11:41:02;;;;;;;3.80;1.80;;;;;;;25.54;nan;100844.50;5019475;28;20515;-68
2023/09/01 11:43:28;;;;;;;2.33;1.77;;;;;;;25.63;nan;100858.78;5026986;28;20736;-69
2023/09/01 11:45:53;;;;;;;4.43;2.00;;;;;;;25.63;nan;100850.72;5007018;28;20099;-71
2023/09/01 11:48:37;;;;;;;2.67;1.77;;;;;;;25.51;nan;100830.88;5025288;28;20033;-68
2023/09/01 11:51:07;;;;;;;2.40;1.70;;;;;;;25.61;nan;100852.91;5018428;28;20136;-69
2023/09/01 11:53:40;;;;;;;4.03;1.90;;;;;;;25.50;nan;100831.97;5008416;28;20103;-68
2023/09/01 11:56:19;;;;;;;3.38;1.98;;;;;;;25.65;nan;100848.50;5025487;28;20080;-70
2023/09/01 11:58:50;;;;;;;2.10;1.67;;;;;;;25.72;nan;100844.53;5008231;28;20030;-71
2023/09/01 12:01:20;;;;;;;4.25;1.75;;;;;;;25.68;nan;100838.97;5029678;28;20029;-70
2023/09/01 12:03:49;;;;;;;3.22;1.90;;;;;;;25.67;nan;100834.69;5011491;28;20452;-69
2023/09/01 12:06:16;;;;;;;1.85;1.67;;;;;;;25.65;nan;100831.53;5030071;28;20075;-69
2023/09/01 12:08:42;;;;;;;4.65;1.85;;;;;;;25.75;nan;100836.59;5028230;28;20028;-69
2023/09/01 12:11:07;;;;;;;4.18;1.73;;;;;;;25.82;nan;100831.53;5030013;28;20025;-68
2023/09/01 12:13:33;;;;;;;2.28;1.73;;;;;;;25.88;nan;100830.31;5026386;28;20130;-69
2023/09/01 12:16:03;;;;;;;3.33;1.60;;;;;;;25.94;nan;100828.22;5009759;28;20119;-68
2023/09/01 12:18:38;;;;;;;3.15;1.90;;;;;;;25.96;nan;100823.31;5027614;28;20030;-68
2023/09/01 12:21:06;;;;;;;1.77;1.52;;;;;;;25.94;nan;100833.63;5027329;28;20048;-67
2023/09/01 12:23:34;;;;;;;3.13;1.83;;;;;;;25.96;nan;100830.63;5022845;28;20056;-68
2023/09/01 12:26:01;;;;;;;2.28;1.40;;;;;;;25.91;nan;100828.88;5026040;28;20448;-68
2023/09/01 12:28:28;;;;;;;2.55;1.60;;;;;;;25.97;nan;100832.97;5028298;28;20433;-69
2023/09/01 12:30:57;;;;;;;3.35;1.90;;;;;;;25.97;nan;100832.97;5025445;28;20044;-69
2023/09/01 12:33:23;;;;;;;3.00;1.63;;;;;;;26.00;nan;100820.75;5027222;28;20107;-69
2023/09/01 12:35:50;;;;;;;3.70;2.03;;;;;;;26.12;nan;100820.91;5027196;28;20033;-68
2023/09/01 12:38:15;;;;;;;2.80;1.70;;;;;;;26.20;nan;100817.41;5026869;28;20036;-70